Time;durP1;ratioP1;P1;durP2;ratioP2;P2;SDS_P1;SDS_P2;PMS_P1;PMS_P2;Temp;Humidity;BMP_temperature;BMP_pressure;BME280_temperature;BME280_humidity;BME280_pressure;Samples;Min_cycle;Max_cycle;Signal;HPM_P1;HPM_P2
2022/12/18 00:01:05;;;;;;;50.80;23.58;;;128.40;2252.80;;;;;;4837642;29;19919;-79
2022/12/18 00:03:34;;;;;;;56.55;25.77;;;128.40;2252.80;;;;;;4837053;29;20042;-78
2022/12/18 00:06:01;;;;;;;53.33;25.20;;;128.40;2252.80;;;;;;4840352;29;20030;-78
2022/12/18 00:08:27;;;;;;;57.65;25.30;;;128.40;2252.80;;;;;;4844190;29;20038;-78
2022/12/18 00:10:53;;;;;;;;;;;128.50;2252.80;;;;;;4844361;29;20394;-78
2022/12/18 00:13:18;;;;;;;50.80;24.10;;;128.50;2252.80;;;;;;4843047;29;19912;-79
2022/12/18 00:15:44;;;;;;;;;;;128.50;2252.80;;;;;;4841818;29;20043;-79
2022/12/18 00:18:10;;;;;;;50.28;23.08;;;128.40;2252.80;;;;;;4841181;29;19922;-79
2022/12/18 00:20:39;;;;;;;;;;;128.40;2252.80;;;;;;4838628;29;20487;-79
2022/12/18 00:23:06;;;;;;;47.42;21.27;;;128.40;2252.80;;;;;;4835342;29;19917;-79
2022/12/18 00:25:36;;;;;;;58.10;23.85;;;128.40;2252.80;;;;;;4843141;29;20032;-79
2022/12/18 00:28:03;;;;;;;61.45;25.85;;;128.10;2252.80;;;;;;4835955;29;20074;-79
2022/12/18 00:30:29;;;;;;;52.40;25.08;;;103.20;2227.20;;;;;;4841567;29;20022;-80
2022/12/18 00:32:55;;;;;;;53.08;25.88;;;102.90;2227.20;;;;;;4843454;29;20040;-80
2022/12/18 00:35:21;;;;;;;;;;;128.00;2252.80;;;;;;4841158;29;20046;-79
2022/12/18 00:37:47;;;;;;;51.75;23.60;;;128.10;2252.80;;;;;;4837823;29;19993;-80
2022/12/18 00:40:12;;;;;;;;;;;128.00;2252.80;;;;;;4838578;29;20090;-83
2022/12/18 00:42:56;;;;;;;65.00;27.80;;;128.30;2252.80;;;;;;4842987;29;19913;-82
2022/12/18 00:45:27;;;;;;;68.93;30.67;;;128.20;2252.80;;;;;;4834212;29;20507;-83
2022/12/18 00:47:53;;;;;;;69.38;30.63;;;128.20;2252.80;;;;;;4834691;29;20050;-82
2022/12/18 00:50:19;;;;;;;76.63;34.63;;;128.10;2252.80;;;;;;4836748;29;20046;-83
2022/12/18 00:52:45;;;;;;;;;;;128.10;2252.80;;;;;;4836622;29;20049;-82
2022/12/18 00:55:11;;;;;;;52.72;25.15;;;128.10;2252.80;;;;;;4832372;29;19920;-83
2022/12/18 00:57:37;;;;;;;51.10;25.30;;;128.00;2252.80;;;;;;4836117;29;20026;-83
2022/12/18 01:00:03;;;;;;;;;;;103.30;2227.20;;;;;;4839849;29;20034;-81
2022/12/18 01:02:29;;;;;;;39.83;18.47;;;103.00;2227.20;;;;;;4836513;29;19908;-82
2022/12/18 01:04:55;;;;;;;;;;;103.20;2227.20;;;;;;4843241;29;20395;-81
2022/12/18 01:07:20;;;;;;;44.50;21.20;;;103.30;2227.20;;;;;;4843029;29;19956;-81
2022/12/18 01:09:46;;;;;;;;;;;103.20;2227.20;;;;;;4832250;29;20038;-82
2022/12/18 01:12:12;;;;;;;47.97;22.45;;;103.20;2227.20;;;;;;4835809;29;20354;-81
2022/12/18 01:14:38;;;;;;;;;;;103.10;2227.20;;;;;;4830879;29;20039;-81
2022/12/18 01:17:04;;;;;;;58.63;25.77;;;103.20;2227.20;;;;;;4843566;29;20304;-81
2022/12/18 01:19:30;;;;;;;53.65;22.80;;;103.20;2227.20;;;;;;4843955;29;20030;-82
2022/12/18 01:21:56;;;;;;;;;;;102.80;2227.20;;;;;;4844397;29;20882;-83
2022/12/18 01:24:22;;;;;;;66.15;32.13;;;103.00;2227.20;;;;;;4843717;29;19913;-82
2022/12/18 01:26:47;;;;;;;;;;;103.10;2227.20;;;;;;4844261;29;20030;-82
2022/12/18 01:29:13;;;;;;;78.13;33.00;;;103.10;2227.20;;;;;;4843839;29;20124;-82
2022/12/18 01:31:38;;;;;;;;;;;103.20;2227.20;;;;;;4844388;29;20399;-82
2022/12/18 01:34:05;;;;;;;112.95;47.47;;;103.20;2227.20;;;;;;4843986;29;19909;-82
2022/12/18 01:36:33;;;;;;;53.25;25.50;;;103.20;2227.20;;;;;;4843689;29;20037;-82
2022/12/18 01:39:01;;;;;;;47.05;22.98;;;103.10;2227.20;;;;;;4843671;29;20463;-83
2022/12/18 01:42:01;;;;;;;50.72;22.08;;;103.10;2227.20;;;;;;4844938;29;20029;-82
2022/12/18 01:44:57;;;;;;;47.67;23.48;;;103.10;2227.20;;;;;;4843927;29;20193;-81
2022/12/18 01:47:26;;;;;;;53.42;23.35;;;103.20;2227.20;;;;;;4847566;29;20144;-81
2022/12/18 01:49:52;;;;;;;46.53;21.98;;;103.10;2227.20;;;;;;4835768;29;20033;-81
2022/12/18 01:52:20;;;;;;;46.83;23.02;;;103.10;2227.20;;;;;;4856838;29;20038;-81
2022/12/18 01:54:48;;;;;;;46.85;23.58;;;103.00;2227.20;;;;;;4849040;29;20029;-80
2022/12/18 01:57:14;;;;;;;45.65;20.10;;;103.00;2227.20;;;;;;4849751;29;20049;-81
2022/12/18 01:59:40;;;;;;;;;;;103.00;2227.20;;;;;;4853459;29;20456;-81
2022/12/18 02:02:07;;;;;;;37.83;17.63;;;103.00;2227.20;;;;;;4849012;29;19955;-81
2022/12/18 02:04:33;;;;;;;54.78;24.15;;;103.10;2227.20;;;;;;4854768;29;20036;-81
2022/12/18 02:06:58;;;;;;;;;;;102.90;2227.20;;;;;;4852608;29;20030;-80
2022/12/18 02:09:37;;;;;;;48.13;22.33;;;102.90;2227.20;;;;;;4837983;29;20015;-81
2022/12/18 02:12:11;;;;;;;48.40;22.15;;;102.90;2227.20;;;;;;4854065;29;20071;-81
2022/12/18 02:14:55;;;;;;;45.75;22.02;;;102.80;2227.20;;;;;;4852749;29;20368;-81
2022/12/18 02:17:25;;;;;;;52.05;23.02;;;102.60;2227.20;;;;;;4834765;29;20050;-81
2022/12/18 02:20:22;;;;;;;48.30;21.80;;;102.60;2227.20;;;;;;4850688;29;20106;-82
2022/12/18 02:23:07;;;;;;;;;;;102.50;2227.20;;;;;;4795073;29;20045;-81
2022/12/18 02:26:00;;;;;;;49.30;22.75;;;77.60;2227.20;;;;;;4788788;29;19913;-79
2022/12/18 02:28:30;;;;;;;54.20;23.77;;;77.70;2227.20;;;;;;4774837;29;20500;-79
2022/12/18 02:31:00;;;;;;;45.20;21.83;;;77.60;2227.20;;;;;;4781623;29;20031;-81
2022/12/18 02:33:28;;;;;;;52.00;23.38;;;77.50;2227.20;;;;;;4780046;29;20126;-81
2022/12/18 02:35:56;;;;;;;56.55;23.65;;;102.40;2227.20;;;;;;4782894;29;20134;-81
2022/12/18 02:38:24;;;;;;;52.03;24.88;;;77.60;2227.20;;;;;;4780525;29;20416;-81
2022/12/18 02:40:52;;;;;;;56.00;24.27;;;102.40;2227.20;;;;;;4793517;29;20073;-83
2022/12/18 02:43:18;;;;;;;45.38;22.35;;;102.50;2227.20;;;;;;4782419;29;20031;-83
2022/12/18 02:45:57;;;;;;;;;;;102.60;2227.20;;;;;;4782153;29;20047;-82
2022/12/18 02:48:30;;;;;;;49.58;22.30;;;102.80;2227.20;;;;;;4773052;30;19925;-80
2022/12/18 02:51:08;;;;;;;45.30;22.00;;;102.80;2227.20;;;;;;4785871;30;20060;-80
2022/12/18 02:54:01;;;;;;;51.13;21.60;;;102.80;2227.20;;;;;;4787512;30;20051;-79
2022/12/18 02:56:35;;;;;;;46.53;22.20;;;102.80;2227.20;;;;;;4786874;30;20047;-79
2022/12/18 02:59:16;;;;;;;51.17;22.88;;;102.90;2227.20;;;;;;4812217;29;20034;-78
2022/12/18 03:01:49;;;;;;;51.75;24.48;;;102.90;2227.20;;;;;;4841588;29;20494;-80
2022/12/18 03:04:32;;;;;;;49.42;21.25;;;102.90;2227.20;;;;;;4839335;29;20388;-81
2022/12/18 03:07:02;;;;;;;53.20;23.20;;;102.90;2227.20;;;;;;4823873;29;20042;-80
2022/12/18 03:09:37;;;;;;;50.10;22.27;;;102.90;2227.20;;;;;;4823885;29;20463;-80
2022/12/18 03:12:29;;;;;;;56.55;25.35;;;102.60;2227.20;;;;;;4823841;29;20026;-80
2022/12/18 03:15:36;;;;;;;50.30;24.38;;;102.40;2227.20;;;;;;4823495;29;20022;-80
2022/12/18 03:18:07;;;;;;;53.45;23.05;;;102.50;2227.20;;;;;;4771497;30;20146;-79
2022/12/18 03:20:35;;;;;;;48.80;22.50;;;102.70;2227.20;;;;;;4770931;30;20077;-79
2022/12/18 03:23:14;;;;;;;62.55;24.77;;;102.60;2227.20;;;;;;4771544;30;20035;-79
2022/12/18 03:25:43;;;;;;;70.97;27.30;;;102.50;2227.20;;;;;;4770905;30;20122;-79
2022/12/18 03:28:14;;;;;;;85.55;28.95;;;102.50;2227.20;;;;;;4786067;30;20495;-80
2022/12/18 03:30:43;;;;;;;61.17;25.17;;;102.50;2227.20;;;;;;4771221;30;20584;-79
2022/12/18 03:33:17;;;;;;;87.35;29.40;;;102.40;2227.20;;;;;;4771247;30;20058;-78
2022/12/18 03:35:44;;;;;;;79.55;29.75;;;102.50;2227.20;;;;;;4771018;30;20143;-78
2022/12/18 03:38:10;;;;;;;81.40;31.75;;;102.40;2227.20;;;;;;4771286;30;20066;-78
2022/12/18 03:41:06;;;;;;;76.10;28.13;;;102.40;2227.20;;;;;;4785837;30;20084;-79
2022/12/18 03:43:55;;;;;;;68.35;27.13;;;102.40;2227.20;;;;;;4771236;30;20032;-79
2022/12/18 03:46:53;;;;;;;60.20;24.95;;;77.70;2227.20;;;;;;4771002;30;20528;-79
2022/12/18 03:49:45;;;;;;;51.63;25.95;;;77.60;2227.20;;;;;;4771200;30;20163;-78
2022/12/18 03:52:34;;;;;;;67.75;29.08;;;102.40;2227.20;;;;;;4801439;29;20070;-79
2022/12/18 03:55:01;;;;;;;57.10;25.10;;;102.50;2227.20;;;;;;4822467;29;20031;-78
2022/12/18 03:57:30;;;;;;;61.60;25.98;;;102.40;2227.20;;;;;;4823350;29;20037;-79
2022/12/18 04:00:00;;;;;;;54.20;25.40;;;77.60;2227.20;;;;;;4823130;29;20030;-79
2022/12/18 04:02:28;;;;;;;63.25;28.02;;;77.70;2227.20;;;;;;4823303;29;20484;-79
2022/12/18 04:04:58;;;;;;;55.15;24.95;;;102.50;2227.20;;;;;;4823203;29;20054;-78
2022/12/18 04:07:24;;;;;;;58.97;24.73;;;102.50;2227.20;;;;;;4823090;29;20369;-79
2022/12/18 04:09:52;;;;;;;;;;;102.60;2227.20;;;;;;4823247;29;20031;-78
2022/12/18 04:12:18;;;;;;;57.65;25.45;;;102.60;2227.20;;;;;;4822650;29;19909;-78
2022/12/18 04:14:43;;;;;;;;;;;102.60;2227.20;;;;;;4823283;29;20506;-78
2022/12/18 04:17:09;;;;;;;53.40;24.55;;;102.60;2227.20;;;;;;4822550;29;19917;-79
2022/12/18 04:19:35;;;;;;;;;;;102.60;2227.20;;;;;;4823116;29;20062;-78
2022/12/18 04:22:00;;;;;;;49.97;22.55;;;102.70;2227.20;;;;;;4822811;29;20369;-78
2022/12/18 04:24:26;;;;;;;;;;;102.60;2227.20;;;;;;4823251;29;20026;-78
2022/12/18 04:26:51;;;;;;;54.25;23.02;;;102.70;2227.20;;;;;;4823698;29;20385;-78
2022/12/18 04:29:17;;;;;;;;;;;102.70;2227.20;;;;;;4823447;29;20465;-79
2022/12/18 04:31:43;;;;;;;45.70;21.67;;;102.60;2227.20;;;;;;4825311;29;19910;-79
2022/12/18 04:34:08;;;;;;;;;;;102.60;2227.20;;;;;;4826642;29;20030;-79
2022/12/18 04:36:34;;;;;;;52.42;22.15;;;102.50;2227.20;;;;;;4825923;29;19939;-79
2022/12/18 04:39:00;;;;;;;;;;;102.60;2227.20;;;;;;4827491;29;20038;-80
2022/12/18 04:41:26;;;;;;;51.53;22.90;;;102.40;2227.20;;;;;;4826231;29;19915;-80
2022/12/18 04:43:52;;;;;;;;;;;102.50;2227.20;;;;;;4826232;29;20061;-80
2022/12/18 04:46:17;;;;;;;48.47;22.63;;;102.50;2227.20;;;;;;4825900;29;19943;-79
2022/12/18 04:48:44;;;;;;;;;;;102.50;2227.20;;;;;;4826622;29;20523;-79
2022/12/18 04:51:10;;;;;;;44.42;18.45;;;102.50;2227.20;;;;;;4826327;29;19983;-80
2022/12/18 04:53:36;;;;;;;;;;;102.50;2227.20;;;;;;4826503;29;20519;-79
2022/12/18 04:56:06;;;;;;;45.20;21.08;;;102.60;2227.20;;;;;;4825354;29;19917;-79
2022/12/18 04:58:32;;;;;;;49.80;22.13;;;102.60;2227.20;;;;;;4825727;29;20534;-78
2022/12/18 05:00:58;;;;;;;;;;;102.60;2227.20;;;;;;4825730;29;20109;-77
2022/12/18 05:03:23;;;;;;;58.60;26.58;;;102.50;2227.20;;;;;;4824706;29;19908;-77
2022/12/18 05:05:50;;;;;;;;;;;102.50;2227.20;;;;;;4825665;29;20026;-77
2022/12/18 05:08:16;;;;;;;54.75;23.63;;;102.60;2227.20;;;;;;4824999;29;19908;-78
2022/12/18 05:10:41;;;;;;;;;;;102.60;2227.20;;;;;;4827123;29;20105;-77
2022/12/18 05:13:07;;;;;;;48.00;21.98;;;102.50;2227.20;;;;;;4825725;29;19912;-80
2022/12/18 05:15:33;;;;;;;;;;;102.40;2227.20;;;;;;4826005;29;20042;-79
2022/12/18 05:17:59;;;;;;;50.30;22.98;;;77.60;2227.20;;;;;;4826214;29;19920;-79
2022/12/18 05:20:25;;;;;;;;;;;77.50;2227.20;;;;;;4825396;29;20030;-79
2022/12/18 05:22:51;;;;;;;57.22;22.27;;;77.50;2227.20;;;;;;4825351;29;19938;-79
2022/12/18 05:25:18;;;;;;;64.22;27.13;;;77.50;2227.20;;;;;;4825121;29;20022;-80
2022/12/18 05:27:44;;;;;;;58.15;25.33;;;77.70;2227.20;;;;;;4826608;29;20056;-80
2022/12/18 05:30:11;;;;;;;53.85;25.48;;;77.70;2227.20;;;;;;4825347;29;20032;-80
2022/12/18 05:32:37;;;;;;;62.28;27.45;;;102.40;2227.20;;;;;;4824429;29;20030;-79
2022/12/18 05:35:05;;;;;;;65.28;31.55;;;102.40;2227.20;;;;;;4825065;29;20056;-79
2022/12/18 05:37:31;;;;;;;70.57;32.70;;;102.50;2227.20;;;;;;4824714;29;20034;-80
2022/12/18 05:39:56;;;;;;;;;;;102.50;2227.20;;;;;;4825272;29;20431;-80
2022/12/18 05:42:22;;;;;;;51.40;23.70;;;102.50;2227.20;;;;;;4823833;29;19916;-80
2022/12/18 05:44:48;;;;;;;;;;;102.40;2227.20;;;;;;4825457;29;20035;-81
2022/12/18 05:47:13;;;;;;;53.88;22.63;;;102.40;2227.20;;;;;;4824437;29;19921;-80
2022/12/18 05:49:39;;;;;;;;;;;102.40;2227.20;;;;;;4825568;29;20026;-81
2022/12/18 05:52:05;;;;;;;52.53;24.98;;;102.40;2227.20;;;;;;4825611;29;19909;-80
2022/12/18 05:54:30;;;;;;;;;;;102.40;2227.20;;;;;;4826443;29;20151;-81
2022/12/18 05:56:57;;;;;;;62.53;28.08;;;102.40;2227.20;;;;;;4824704;29;19923;-80
2022/12/18 05:59:23;;;;;;;55.22;26.52;;;102.40;2227.20;;;;;;4824735;29;20536;-80
2022/12/18 06:01:48;;;;;;;;;;;102.40;2227.20;;;;;;4824833;29;20062;-80
2022/12/18 06:04:14;;;;;;;132.68;41.78;;;102.40;2227.20;;;;;;4825621;29;19909;-81
2022/12/18 06:06:40;;;;;;;;;;;77.60;2227.20;;;;;;4835585;29;20038;-81
2022/12/18 06:09:09;;;;;;;115.57;36.67;;;77.60;2227.20;;;;;;4841923;29;19908;-80
2022/12/18 06:11:36;;;;;;;115.03;40.35;;;77.60;2227.20;;;;;;4834078;29;20042;-81
2022/12/18 06:14:03;;;;;;;98.57;36.38;;;77.50;2227.20;;;;;;4839314;29;20027;-80
2022/12/18 06:16:29;;;;;;;81.30;32.67;;;77.50;2227.20;;;;;;4835073;29;20403;-81
2022/12/18 06:19:04;;;;;;;107.65;41.17;;;77.50;2227.20;;;;;;4831395;29;20046;-80
2022/12/18 06:21:31;;;;;;;138.13;48.88;;;77.50;2227.20;;;;;;4836228;29;20049;-82
2022/12/18 06:23:57;;;;;;;108.38;40.45;;;77.40;2227.20;;;;;;4841295;29;20026;-80
2022/12/18 06:26:23;;;;;;;;;;;77.30;2227.20;;;;;;4831083;29;20491;-80
2022/12/18 06:28:49;;;;;;;80.53;33.22;;;77.20;2227.20;;;;;;4833528;29;19920;-79
2022/12/18 06:31:15;;;;;;;;;;;77.30;2227.20;;;;;;4836149;29;20494;-81
2022/12/18 06:33:41;;;;;;;70.75;29.23;;;77.40;2227.20;;;;;;4834968;29;19912;-80
2022/12/18 06:36:11;;;;;;;;;;;77.30;2227.20;;;;;;4842312;29;20042;-79
2022/12/18 06:38:40;;;;;;;127.57;45.35;;;77.30;2227.20;;;;;;4837593;29;19915;-77
2022/12/18 06:41:26;;;;;;;119.22;46.33;;;77.30;2227.20;;;;;;4841401;29;20086;-77
2022/12/18 06:43:52;;;;;;;113.28;40.17;;;77.30;2227.20;;;;;;4835251;29;20086;-84
2022/12/18 06:46:18;;;;;;;;;;;77.40;2227.20;;;;;;4831588;29;20469;-79
2022/12/18 06:48:47;;;;;;;78.85;31.35;;;77.50;2227.20;;;;;;4844023;29;19924;-78
2022/12/18 06:51:16;;;;;;;100.43;40.78;;;77.50;2227.20;;;;;;4824458;29;20026;-78
2022/12/18 06:53:42;;;;;;;172.77;62.42;;;77.60;2227.20;;;;;;4825793;29;20046;-76
2022/12/18 06:56:08;;;;;;;;;;;77.60;2227.20;;;;;;4821927;29;20510;-80
2022/12/18 06:58:33;;;;;;;250.02;95.18;;;77.70;2227.20;;;;;;4828023;29;19912;-80
2022/12/18 07:01:19;;;;;;;;;;;77.70;2227.20;;;;;;4825966;29;20452;-80
2022/12/18 07:03:45;;;;;;;88.68;39.60;;;77.70;2227.20;;;;;;4818960;29;19912;-76
2022/12/18 07:06:15;;;;;;;;;;;77.70;2227.20;;;;;;4820963;29;20487;-77
2022/12/18 07:08:40;;;;;;;88.18;38.80;;;77.70;2227.20;;;;;;4831681;29;19932;-78
2022/12/18 07:11:06;;;;;;;;;;;77.70;2227.20;;;;;;4824732;29;20487;-79
2022/12/18 07:13:32;;;;;;;73.18;34.28;;;77.70;2227.20;;;;;;4825455;29;20011;-78
2022/12/18 07:16:14;;;;;;;;;;;77.70;2227.20;;;;;;4823950;29;20043;-76
2022/12/18 07:18:39;;;;;;;88.22;37.33;;;77.70;2227.20;;;;;;4840078;29;19947;-75
2022/12/18 07:21:06;;;;;;;;;;;102.40;2227.20;;;;;;4824751;29;20125;-77
2022/12/18 07:23:34;;;;;;;51.28;24.95;;;77.70;2227.20;;;;;;4827075;29;19917;-82
2022/12/18 07:26:11;;;;;;;66.03;29.38;;;77.70;2227.20;;;;;;4831379;29;20070;-78
2022/12/18 07:28:38;;;;;;;60.42;27.98;;;77.70;2227.20;;;;;;4818465;29;20073;-75
2022/12/18 07:31:05;;;;;;;66.80;31.83;;;102.40;2227.20;;;;;;4825126;29;20038;-78
2022/12/18 07:33:32;;;;;;;64.43;30.58;;;102.40;2227.20;;;;;;4825293;29;20540;-75
2022/12/18 07:36:03;;;;;;;71.07;32.03;;;102.50;2227.20;;;;;;4827359;29;20396;-79
2022/12/18 07:38:30;;;;;;;70.00;33.97;;;102.50;2227.20;;;;;;4821506;29;20037;-78
2022/12/18 07:41:07;;;;;;;70.60;34.60;;;102.60;2227.20;;;;;;4825274;29;20034;-77
2022/12/18 07:43:33;;;;;;;75.90;33.20;;;102.50;2227.20;;;;;;4831878;29;20034;-80
2022/12/18 07:45:59;;;;;;;88.85;37.08;;;102.50;2227.20;;;;;;4828266;29;20127;-82
2022/12/18 07:48:25;;;;;;;;;;;102.60;2227.20;;;;;;4829153;29;20057;-80
2022/12/18 07:50:51;;;;;;;68.43;30.45;;;102.50;2227.20;;;;;;4836184;29;19909;-79
2022/12/18 07:53:16;;;;;;;;;;;102.50;2227.20;;;;;;4836817;29;20099;-82
2022/12/18 07:55:42;;;;;;;78.05;34.28;;;102.40;2227.20;;;;;;4836798;29;20405;-81
2022/12/18 07:58:08;;;;;;;;;;;102.50;2227.20;;;;;;4822012;29;20035;-79
2022/12/18 08:00:34;;;;;;;71.05;32.25;;;77.70;2227.20;;;;;;4836573;29;19917;-83
2022/12/18 08:03:00;;;;;;;71.90;33.88;;;77.40;2227.20;;;;;;4833501;29;20034;-82
2022/12/18 08:05:26;;;;;;;71.43;33.50;;;77.50;2227.20;;;;;;4822327;29;20046;-81
2022/12/18 08:07:52;;;;;;;;;;;77.70;2227.20;;;;;;4826178;29;20068;-87
2022/12/18 08:10:18;;;;;;;78.05;36.05;;;102.40;2227.20;;;;;;4838643;29;19999;-85
2022/12/18 08:12:44;;;;;;;82.07;35.03;;;77.60;2227.20;;;;;;4825283;29;20479;-85
2022/12/18 08:15:10;;;;;;;;;;;77.70;2227.20;;;;;;4838110;29;20109;-84
2022/12/18 08:17:35;;;;;;;86.43;35.65;;;102.50;2227.20;;;;;;4835287;29;19967;-82
2022/12/18 08:20:01;;;;;;;;;;;102.50;2227.20;;;;;;4824988;29;20085;-85
2022/12/18 08:22:27;;;;;;;80.90;38.65;;;102.60;2227.20;;;;;;4834755;29;19952;-87
2022/12/18 08:24:53;;;;;;;;;;;102.50;2227.20;;;;;;4826433;29;20031;-83
2022/12/18 08:27:18;;;;;;;78.82;34.13;;;102.60;2227.20;;;;;;4837222;29;19912;-86
2022/12/18 08:29:44;;;;;;;;;;;102.50;2227.20;;;;;;4822251;29;20095;-88
2022/12/18 08:32:10;;;;;;;82.10;35.10;;;102.60;2227.20;;;;;;4823678;29;19913;-88
2022/12/18 08:34:35;;;;;;;;;;;102.40;2227.20;;;;;;4824054;29;20030;-86
2022/12/18 08:37:01;;;;;;;77.75;32.13;;;102.50;2227.20;;;;;;4835229;29;19925;-84
2022/12/18 08:39:27;;;;;;;;;;;77.60;2227.20;;;;;;4835756;29;20038;-92
2022/12/18 08:44:39;;;;;;;79.85;33.38;;;102.60;2227.20;;;;;;4823082;29;20049;-85
2022/12/18 08:47:06;;;;;;;79.80;35.28;;;102.80;2227.20;;;;;;4834709;29;20041;-89
2022/12/18 08:49:32;;;;;;;77.88;35.20;;;102.90;2227.20;;;;;;4844694;29;20037;-84
2022/12/18 08:51:58;;;;;;;84.25;34.78;;;102.80;2227.20;;;;;;4844733;29;20117;-82
2022/12/18 08:54:24;;;;;;;;;;;103.00;2227.20;;;;;;4839347;29;20063;-78
2022/12/18 08:56:50;;;;;;;71.80;34.20;;;103.10;2227.20;;;;;;4845792;29;19927;-76
2022/12/18 08:59:17;;;;;;;108.15;42.22;;;103.10;2227.20;;;;;;4845177;29;20029;-77
2022/12/18 09:01:43;;;;;;;105.60;41.85;;;103.00;2227.20;;;;;;4844666;29;20593;-77
2022/12/18 09:04:09;;;;;;;;;;;103.20;2227.20;;;;;;4843852;29;20037;-79
2022/12/18 09:06:35;;;;;;;86.95;36.72;;;103.10;2227.20;;;;;;4845237;29;19919;-81
2022/12/18 09:09:02;;;;;;;78.03;34.10;;;103.30;2227.20;;;;;;4837159;29;20048;-81
2022/12/18 09:11:28;;;;;;;80.72;36.72;;;103.20;2227.20;;;;;;4850320;29;20371;-82
2022/12/18 09:13:55;;;;;;;108.45;43.75;;;103.30;2227.20;;;;;;4843380;29;20033;-77
2022/12/18 09:16:23;;;;;;;71.70;34.40;;;103.10;2227.20;;;;;;4845841;29;20037;-80
2022/12/18 09:18:49;;;;;;;83.88;36.30;;;102.90;2227.20;;;;;;4843874;29;20502;-79
2022/12/18 09:21:16;;;;;;;;;;;102.90;2227.20;;;;;;4844494;29;20085;-81
2022/12/18 09:23:42;;;;;;;;;;;103.20;2227.20;;;;;;4837947;29;19951;-78
2022/12/18 09:26:08;;;;;;;81.57;37.72;;;103.30;2227.20;;;;;;4838438;29;20361;-78
2022/12/18 09:28:33;;;;;;;;;;;103.30;2227.20;;;;;;4845483;29;20105;-80
2022/12/18 09:31:04;;;;;;;99.13;42.17;;;128.20;2252.80;;;;;;4839829;29;19916;-83
2022/12/18 09:33:30;;;;;;;98.78;42.15;;;128.20;2252.80;;;;;;4836078;29;20042;-85
2022/12/18 09:35:56;;;;;;;;;;;128.30;2252.80;;;;;;4838856;29;20090;-82
2022/12/18 09:38:23;;;;;;;81.63;37.03;;;128.50;2252.80;;;;;;4841910;29;20019;-80
2022/12/18 09:40:56;;;;;;;88.43;38.58;;;128.60;2252.80;;;;;;4845332;29;20112;-79
2022/12/18 09:43:44;;;;;;;90.50;39.10;;;128.40;2252.80;;;;;;4837626;29;20144;-81
2022/12/18 09:46:20;;;;;;;83.88;37.10;;;128.20;2252.80;;;;;;4837489;29;20042;-81
2022/12/18 09:49:00;;;;;;;93.50;39.70;;;128.80;2252.80;;;;;;4835503;29;20126;-79
2022/12/18 09:51:44;;;;;;;81.78;36.58;;;153.60;2252.80;;;;;;4849536;29;20513;-81
2022/12/18 09:54:25;;;;;;;76.85;34.45;;;128.50;2252.80;;;;;;4837060;29;20045;-83
2022/12/18 09:56:51;;;;;;;76.60;35.33;;;153.60;2252.80;;;;;;4849551;29;20114;-81
2022/12/18 09:59:23;;;;;;;;;;;154.00;2252.80;;;;;;4839445;29;20559;-81
2022/12/18 10:01:48;;;;;;;72.72;33.55;;;153.80;2252.80;;;;;;4840756;29;20281;-80
2022/12/18 10:04:14;;;;;;;;;;;153.90;2252.80;;;;;;4842989;29;20033;-81
2022/12/18 10:07:07;;;;;;;85.85;36.03;;;153.70;2252.80;;;;;;4842123;29;19912;-85
2022/12/18 10:09:44;;;;;;;76.00;34.03;;;153.90;2252.80;;;;;;4839146;29;20533;-83
2022/12/18 10:12:34;;;;;;;88.65;35.85;;;153.70;2252.80;;;;;;4855097;29;20128;-80
2022/12/18 10:15:12;;;;;;;87.03;37.95;;;128.70;2252.80;;;;;;4831740;29;20505;-81
2022/12/18 10:17:46;;;;;;;80.82;35.75;;;128.80;2252.80;;;;;;4840558;29;20486;-80
2022/12/18 10:20:38;;;;;;;77.28;34.60;;;153.60;2252.80;;;;;;4839911;29;20042;-81
2022/12/18 10:23:18;;;;;;;79.80;35.50;;;154.10;2252.80;;;;;;4840416;29;20030;-85
2022/12/18 10:25:59;;;;;;;81.07;36.50;;;154.10;2252.80;;;;;;4836266;29;20030;-81
2022/12/18 10:28:25;;;;;;;83.90;34.72;;;154.10;2252.80;;;;;;4850177;29;20038;-85
2022/12/18 10:30:51;;;;;;;77.63;36.33;;;154.30;2252.80;;;;;;4836750;29;20026;-82
2022/12/18 10:33:21;;;;;;;;;;;153.90;2252.80;;;;;;4839694;29;20083;-83
2022/12/18 10:35:53;;;;;;;84.43;36.35;;;154.20;2252.80;;;;;;4829729;29;20422;-84
2022/12/18 10:38:19;;;;;;;73.80;34.15;;;179.20;2252.80;;;;;;4845344;29;20391;-86
2022/12/18 10:40:48;;;;;;;;;;;179.20;2252.80;;;;;;4849517;29;20034;-85
2022/12/18 10:43:16;;;;;;;80.47;35.22;;;179.30;2252.80;;;;;;4835812;29;19912;-85
2022/12/18 10:45:49;;;;;;;82.95;39.92;;;179.20;2252.80;;;;;;4838859;29;20080;-81
2022/12/18 10:48:20;;;;;;;95.28;40.85;;;179.50;2252.80;;;;;;4837332;29;20050;-82
2022/12/18 10:50:49;;;;;;;83.20;37.22;;;179.30;2252.80;;;;;;4839376;29;20053;-86
2022/12/18 10:53:25;;;;;;;83.13;36.88;;;179.20;2252.80;;;;;;4829171;29;20046;-86
2022/12/18 10:55:53;;;;;;;86.07;40.40;;;154.20;2252.80;;;;;;4839509;29;20128;-83
2022/12/18 10:58:25;;;;;;;88.53;40.45;;;179.30;2252.80;;;;;;4833469;29;20399;-84
2022/12/18 11:01:15;;;;;;;85.47;38.22;;;179.50;2252.80;;;;;;4854634;29;20112;-84
2022/12/18 11:03:45;;;;;;;87.18;39.75;;;179.40;2252.80;;;;;;4838476;29;20125;-86
2022/12/18 11:06:14;;;;;;;87.70;39.20;;;154.30;2252.80;;;;;;4841991;29;20041;-86
2022/12/18 11:08:42;;;;;;;83.40;38.30;;;153.80;2252.80;;;;;;4841563;29;20368;-82
2022/12/18 11:11:23;;;;;;;83.18;36.42;;;153.70;2252.80;;;;;;4834499;29;20494;-87
2022/12/18 11:14:05;;;;;;;87.18;39.95;;;153.90;2252.80;;;;;;4839811;29;20038;-84
2022/12/18 11:16:36;;;;;;;83.43;37.70;;;154.20;2252.80;;;;;;4840865;29;20076;-87
2022/12/18 11:19:35;;;;;;;84.05;37.50;;;154.30;2252.80;;;;;;4843527;29;20046;-84
2022/12/18 11:22:17;;;;;;;82.40;38.13;;;154.30;2252.80;;;;;;4838204;29;20038;-84
2022/12/18 11:24:51;;;;;;;77.95;35.28;;;179.30;2252.80;;;;;;4840093;29;20069;-83
2022/12/18 11:27:18;;;;;;;77.20;35.03;;;154.50;2252.80;;;;;;4837622;29;20034;-83
2022/12/18 11:29:44;;;;;;;77.03;36.33;;;179.30;2252.80;;;;;;4830081;29;20483;-82
2022/12/18 11:32:29;;;;;;;72.35;35.88;;;154.50;2252.80;;;;;;4835767;29;20499;-87
2022/12/18 11:35:13;;;;;;;85.32;37.20;;;179.40;2252.80;;;;;;4831291;29;20038;-81
2022/12/18 11:37:45;;;;;;;74.63;34.85;;;179.20;2252.80;;;;;;4831067;29;20098;-78
2022/12/18 11:40:20;;;;;;;88.18;38.25;;;179.20;2252.80;;;;;;4840414;29;20061;-86
2022/12/18 11:42:58;;;;;;;81.00;35.25;;;179.20;2252.80;;;;;;4853723;29;20520;-90
2022/12/18 11:45:31;;;;;;;81.20;35.38;;;179.20;2252.80;;;;;;4857007;29;20035;-91
2022/12/18 11:48:02;;;;;;;76.43;34.67;;;179.20;2252.80;;;;;;4841523;29;20071;-91
2022/12/18 11:50:51;;;;;;;76.95;33.33;;;154.20;2252.80;;;;;;4846807;29;20046;-88
2022/12/18 11:53:17;;;;;;;72.45;34.50;;;154.10;2252.80;;;;;;4841423;29;20126;-87
2022/12/18 11:56:01;;;;;;;;;;;153.90;2252.80;;;;;;4842654;29;20035;-86
2022/12/18 11:58:39;;;;;;;72.80;32.55;;;153.90;2252.80;;;;;;4843323;29;19938;-85
2022/12/18 12:01:29;;;;;;;72.45;35.25;;;154.20;2252.80;;;;;;4844544;29;20035;-82
2022/12/18 12:04:19;;;;;;;76.93;35.35;;;154.30;2252.80;;;;;;4852472;29;20117;-78
2022/12/18 12:07:16;;;;;;;75.15;35.65;;;154.20;2252.80;;;;;;4844220;29;20025;-86
2022/12/18 12:09:48;;;;;;;82.90;36.03;;;154.10;2252.80;;;;;;4843056;29;20556;-84
2022/12/18 12:12:45;;;;;;;76.40;34.13;;;154.10;2252.80;;;;;;4853111;29;20083;-83
2022/12/18 12:15:40;;;;;;;56.05;27.33;;;154.30;2252.80;;;;;;4841773;29;20033;-80
2022/12/18 12:18:42;;;;;;;77.72;34.92;;;154.30;2252.80;;;;;;4785486;29;20069;-81
2022/12/18 12:21:19;;;;;;;82.30;36.20;;;154.10;2252.80;;;;;;4786017;29;20035;-83
2022/12/18 12:23:59;;;;;;;76.32;35.83;;;154.30;2252.80;;;;;;4789716;29;20072;-79
2022/12/18 12:26:57;;;;;;;70.38;33.88;;;154.40;2252.80;;;;;;4786449;29;20526;-83
2022/12/18 12:29:25;;;;;;;73.68;34.75;;;154.30;2252.80;;;;;;4700215;30;20045;-81
2022/12/18 12:31:54;;;;;;;77.80;32.78;;;154.20;2252.80;;;;;;4700649;30;20053;-85
2022/12/18 12:34:25;;;;;;;78.03;36.17;;;154.10;2252.80;;;;;;4700763;30;20053;-79
2022/12/18 12:37:23;;;;;;;77.63;35.33;;;154.00;2252.80;;;;;;4698975;30;20046;-79
2022/12/18 12:39:50;;;;;;;81.55;38.70;;;154.00;2252.80;;;;;;4663739;30;20030;-81
2022/12/18 12:45:30;;;;;;;84.07;35.85;;;153.80;2252.80;;;;;;4665520;30;20049;-80